Time;durP1;ratioP1;P1;durP2;ratioP2;P2;SDS_P1;SDS_P2;PMS_P1;PMS_P2;Temp;Humidity;BMP_temperature;BMP_pressure;BME280_temperature;BME280_humidity;BME280_pressure;Samples;Min_cycle;Max_cycle;Signal;HPM_P1;HPM_P2
2022/01/13 00:01:35;;;;;;;44.13;16.67;;;1.90;99.90;;;;;;4988914;28;20053;-76
2022/01/13 00:04:03;;;;;;;52.25;16.40;;;2.00;99.90;;;;;;4987825;28;20062;-81
2022/01/13 00:06:31;;;;;;;;;;;1.80;99.90;;;;;;4988208;28;20042;-75
2022/01/13 00:08:59;;;;;;;54.10;15.90;;;1.80;99.90;;;;;;4986519;28;19936;-81
2022/01/13 00:11:26;;;;;;;48.13;15.27;;;1.80;99.90;;;;;;4971670;28;20050;-82
2022/01/13 00:16:44;;;;;;;43.70;16.15;;;1.80;99.90;;;;;;4970303;28;20054;-76
2022/01/13 00:21:48;;;;;;;41.53;15.32;;;1.80;99.90;;;;;;4987471;28;20050;-77
2022/01/13 00:24:17;;;;;;;43.87;16.30;;;1.80;99.90;;;;;;4986982;28;20366;-80
2022/01/13 00:26:46;;;;;;;;;;;1.80;99.90;;;;;;4987609;28;20061;-81
2022/01/13 00:29:20;;;;;;;41.92;13.70;;;1.80;99.90;;;;;;4987151;28;20370;-79
2022/01/13 00:31:47;;;;;;;46.30;14.93;;;1.70;99.90;;;;;;4986841;28;20538;-77
2022/01/13 00:34:15;;;;;;;43.97;14.32;;;1.80;99.90;;;;;;4970803;28;20050;-75
2022/01/13 00:36:43;;;;;;;40.70;13.07;;;1.80;99.90;;;;;;4970444;28;20050;-76
2022/01/13 00:39:12;;;;;;;41.05;13.70;;;1.70;99.90;;;;;;4986338;28;20046;-75
2022/01/13 00:41:40;;;;;;;29.30;12.55;;;1.70;99.90;;;;;;4987343;28;20050;-76
2022/01/13 00:44:09;;;;;;;42.22;12.98;;;1.70;99.90;;;;;;4986312;28;20061;-79
2022/01/13 00:46:43;;;;;;;38.10;12.35;;;1.70;99.90;;;;;;4969492;28;20501;-80
2022/01/13 00:49:12;;;;;;;39.03;12.82;;;1.70;99.90;;;;;;4986642;28;20057;-75
2022/01/13 00:51:42;;;;;;;42.63;12.43;;;1.70;99.90;;;;;;4986925;28;20062;-81
2022/01/13 00:54:10;;;;;;;37.67;13.25;;;1.70;99.90;;;;;;4987300;28;20070;-81
2022/01/13 00:56:38;;;;;;;37.40;12.68;;;1.70;99.90;;;;;;4986565;28;20050;-81
2022/01/13 00:59:09;;;;;;;;;;;1.70;99.90;;;;;;4986872;28;20061;-82
2022/01/13 01:01:43;;;;;;;38.78;11.85;;;1.70;99.90;;;;;;4987206;28;20419;-81
2022/01/13 01:04:11;;;;;;;36.70;11.73;;;1.70;99.90;;;;;;4986757;28;20062;-75
2022/01/13 01:06:39;;;;;;;43.42;11.48;;;1.80;99.90;;;;;;4986252;28;20058;-80
2022/01/13 01:09:38;;;;;;;41.38;12.90;;;1.70;99.90;;;;;;4986645;28;20502;-77
2022/01/13 01:11:57;;;;;;;34.15;12.55;;;1.60;99.90;;;;;;4986556;28;20054;-80
2022/01/13 01:14:26;;;;;;;42.70;13.00;;;1.60;99.90;;;;;;4987618;28;20046;-76
2022/01/13 01:16:53;;;;;;;38.78;12.10;;;1.60;99.90;;;;;;4987747;28;20049;-79
2022/01/13 01:19:27;;;;;;;43.10;12.90;;;1.60;99.90;;;;;;4985705;28;20573;-79
2022/01/13 01:22:42;;;;;;;40.05;11.90;;;1.60;99.90;;;;;;5002291;28;20058;-79
2022/01/13 01:27:37;;;;;;;54.92;12.73;;;1.60;99.90;;;;;;4985936;28;20042;-78
2022/01/13 01:30:12;;;;;;;39.22;12.88;;;1.50;99.90;;;;;;4986705;28;20061;-77
2022/01/13 01:32:40;;;;;;;39.90;14.32;;;1.50;99.90;;;;;;4985080;28;20050;-76
2022/01/13 01:35:14;;;;;;;47.03;14.10;;;1.50;99.90;;;;;;4985533;28;20058;-78
2022/01/13 01:37:44;;;;;;;48.90;14.52;;;1.50;99.90;;;;;;4986662;28;20050;-77
2022/01/13 01:40:13;;;;;;;47.72;15.07;;;1.50;99.90;;;;;;4985069;28;20042;-76
2022/01/13 01:42:41;;;;;;;54.47;14.60;;;1.50;99.90;;;;;;4984995;28;20554;-77
2022/01/13 01:45:10;;;;;;;48.03;15.82;;;1.50;99.90;;;;;;4978377;28;20066;-78
2022/01/13 01:47:39;;;;;;;41.38;14.80;;;1.50;99.90;;;;;;4997812;28;20510;-79
2022/01/13 01:50:17;;;;;;;53.95;15.88;;;1.50;99.90;;;;;;4986405;28;20605;-77
2022/01/13 01:52:50;;;;;;;45.65;15.35;;;1.50;99.90;;;;;;4981152;28;20042;-78
2022/01/13 01:55:20;;;;;;;47.40;15.50;;;1.50;99.90;;;;;;4966583;28;20058;-78
2022/01/13 01:57:52;;;;;;;47.60;15.85;;;1.50;99.90;;;;;;5002269;28;20043;-79
2022/01/13 02:00:24;;;;;;;53.50;15.43;;;1.50;99.90;;;;;;4968725;28;20042;-79
2022/01/13 02:02:55;;;;;;;48.50;14.82;;;1.50;99.90;;;;;;4986471;28;20055;-77
2022/01/13 02:05:23;;;;;;;50.42;14.63;;;1.40;99.90;;;;;;4986856;28;20058;-81
2022/01/13 02:07:51;;;;;;;46.55;13.60;;;1.40;99.90;;;;;;4969169;28;20047;-81
2022/01/13 02:10:18;;;;;;;44.42;13.10;;;1.60;99.90;;;;;;4986286;28;20236;-78
2022/01/13 02:12:52;;;;;;;50.92;13.38;;;1.40;99.90;;;;;;4984999;28;20057;-80
2022/01/13 02:18:17;;;;;;;49.45;13.27;;;1.40;99.90;;;;;;4984880;28;20054;-80
2022/01/13 02:20:53;;;;;;;59.03;15.05;;;1.40;99.90;;;;;;4986440;28;20058;-80
2022/01/13 02:23:29;;;;;;;42.03;14.40;;;1.40;99.90;;;;;;4986126;28;20062;-80
2022/01/13 02:25:57;;;;;;;47.63;13.45;;;1.40;99.90;;;;;;4986916;28;20050;-77
2022/01/13 02:28:25;;;;;;;47.33;13.70;;;1.40;99.90;;;;;;5000446;28;20058;-79
2022/01/13 02:30:53;;;;;;;43.97;13.32;;;1.40;99.90;;;;;;4980432;28;20059;-80
2022/01/13 02:33:20;;;;;;;42.38;13.00;;;1.40;99.90;;;;;;4964957;28;20043;-79
2022/01/13 02:35:48;;;;;;;51.03;13.55;;;1.30;99.90;;;;;;4974113;28;20058;-77
2022/01/13 02:38:16;;;;;;;37.13;12.07;;;1.30;99.90;;;;;;4986457;28;20046;-76
2022/01/13 02:40:44;;;;;;;46.40;12.93;;;1.30;99.90;;;;;;4986554;28;20220;-77
2022/01/13 02:43:12;;;;;;;43.85;12.95;;;1.30;99.90;;;;;;4986729;28;20388;-80
2022/01/13 02:45:52;;;;;;;44.80;13.18;;;1.40;99.90;;;;;;4965134;28;20499;-76
2022/01/13 02:50:53;;;;;;;39.05;11.90;;;1.20;99.90;;;;;;5010691;28;20050;-81
2022/01/13 02:53:21;;;;;;;35.85;10.95;;;1.20;99.90;;;;;;4987084;28;20058;-80
2022/01/13 02:55:54;;;;;;;36.53;10.88;;;1.20;99.90;;;;;;4987128;28;20057;-82
2022/01/13 02:58:22;;;;;;;33.55;10.70;;;1.20;99.90;;;;;;4987004;28;20042;-80
2022/01/13 03:00:50;;;;;;;36.65;11.27;;;1.20;99.90;;;;;;4986327;28;20495;-78
2022/01/13 03:03:19;;;;;;;46.78;11.40;;;1.20;99.90;;;;;;4984980;28;20069;-81
2022/01/13 03:05:47;;;;;;;37.35;12.05;;;1.20;99.90;;;;;;4987092;28;20046;-80
2022/01/13 03:08:14;;;;;;;;;;;1.20;99.90;;;;;;4986492;28;20069;-82
2022/01/13 03:10:42;;;;;;;39.65;10.75;;;1.10;99.90;;;;;;4969637;28;19932;-81
2022/01/13 03:13:10;;;;;;;38.28;13.05;;;1.20;99.90;;;;;;4986619;28;20051;-81
2022/01/13 03:15:38;;;;;;;35.22;12.70;;;1.20;99.90;;;;;;4986638;28;20491;-81
2022/01/13 03:18:05;;;;;;;46.35;14.15;;;1.10;99.90;;;;;;4985635;28;20054;-81
2022/01/13 03:20:33;;;;;;;45.08;14.55;;;1.10;99.90;;;;;;4986351;28;20046;-82
2022/01/13 03:23:04;;;;;;;35.90;12.60;;;1.10;99.90;;;;;;4986652;28;20058;-80
2022/01/13 03:25:32;;;;;;;38.50;12.77;;;1.00;99.90;;;;;;4986544;28;20433;-78
2022/01/13 03:28:08;;;;;;;44.25;14.07;;;1.00;99.90;;;;;;4989260;28;20380;-78
2022/01/13 03:30:35;;;;;;;45.00;13.70;;;1.10;99.90;;;;;;4986853;28;20065;-79
2022/01/13 03:33:03;;;;;;;41.85;13.52;;;1.00;99.90;;;;;;4967982;28;20793;-75
2022/01/13 03:35:31;;;;;;;37.50;12.93;;;1.00;99.90;;;;;;4984612;28;20069;-75
2022/01/13 03:37:59;;;;;;;45.10;13.30;;;1.00;99.90;;;;;;4968189;28;20415;-74
2022/01/13 03:40:27;;;;;;;46.50;13.30;;;1.00;99.90;;;;;;4984398;28;20050;-74
2022/01/13 03:42:56;;;;;;;38.78;12.43;;;1.00;99.90;;;;;;4985366;28;20087;-74
2022/01/13 03:45:23;;;;;;;;;;;0.90;99.90;;;;;;4988131;28;20470;-77
2022/01/13 03:47:51;;;;;;;37.50;11.15;;;0.90;99.90;;;;;;4987681;28;19921;-77
2022/01/13 03:50:18;;;;;;;38.80;10.55;;;0.90;99.90;;;;;;4989227;28;20515;-75
2022/01/13 03:53:27;;;;;;;33.05;10.35;;;0.90;99.90;;;;;;4989226;28;20057;-75
2022/01/13 03:56:47;;;;;;;31.40;9.40;;;0.90;99.90;;;;;;4987994;28;20423;-75
2022/01/13 03:59:39;;;;;;;26.77;9.02;;;0.80;99.90;;;;;;4985413;28;20073;-76
2022/01/13 04:02:07;;;;;;;35.28;8.25;;;0.80;99.90;;;;;;4987169;28;20066;-79
2022/01/13 04:04:41;;;;;;;29.13;8.40;;;0.80;99.90;;;;;;4988677;28;20054;-79
2022/01/13 04:07:13;;;;;;;27.40;8.60;;;0.80;99.90;;;;;;4987517;28;20219;-76
2022/01/13 04:09:41;;;;;;;31.35;8.23;;;0.80;99.90;;;;;;4987856;28;20069;-75
2022/01/13 04:12:12;;;;;;;29.73;8.88;;;0.80;99.90;;;;;;4987328;28;20510;-76
2022/01/13 04:14:59;;;;;;;30.50;8.57;;;0.70;99.90;;;;;;4987262;28;20065;-76
2022/01/13 04:17:28;;;;;;;30.08;8.05;;;0.70;99.90;;;;;;4987692;28;20585;-75
2022/01/13 04:19:56;;;;;;;28.48;7.80;;;0.70;99.90;;;;;;5000492;28;20093;-75
2022/01/13 04:22:26;;;;;;;34.97;8.00;;;0.70;99.90;;;;;;4988193;28;20410;-77
2022/01/13 04:24:54;;;;;;;29.90;7.50;;;0.70;99.90;;;;;;4988558;28;20054;-77
2022/01/13 04:27:28;;;;;;;23.33;7.47;;;0.70;99.90;;;;;;4988209;28;20065;-78
2022/01/13 04:32:44;;;;;;;34.08;8.00;;;0.70;99.90;;;;;;4996184;28;20399;-76
2022/01/13 04:35:11;;;;;;;33.28;7.78;;;0.70;99.90;;;;;;4986899;28;20439;-78
2022/01/13 04:37:41;;;;;;;24.45;7.85;;;0.70;99.90;;;;;;4988280;28;20091;-77
2022/01/13 04:40:09;;;;;;;31.17;7.43;;;0.70;99.90;;;;;;4987390;28;20399;-77
2022/01/13 04:42:41;;;;;;;;;;;0.70;99.90;;;;;;4987566;28;20054;-77
2022/01/13 04:45:09;;;;;;;27.95;7.03;;;0.70;99.90;;;;;;4987163;28;20402;-77
2022/01/13 04:47:37;;;;;;;23.35;7.05;;;0.70;99.90;;;;;;4988577;28;20042;-76
2022/01/13 04:50:05;;;;;;;;;;;0.70;99.90;;;;;;4988620;28;20042;-77
2022/01/13 04:52:33;;;;;;;33.88;7.60;;;0.70;99.90;;;;;;4970967;28;20263;-77
2022/01/13 04:55:08;;;;;;;25.85;7.72;;;0.70;99.90;;;;;;4986126;28;20043;-77
2022/01/13 04:57:36;;;;;;;27.67;7.88;;;0.70;99.90;;;;;;4970486;28;20062;-77
2022/01/13 05:00:06;;;;;;;25.38;7.80;;;0.70;99.90;;;;;;4986802;28;20574;-75
2022/01/13 05:02:36;;;;;;;31.60;7.45;;;0.60;99.90;;;;;;4987392;28;20495;-76
2022/01/13 05:05:04;;;;;;;32.58;8.50;;;0.60;99.90;;;;;;4988079;28;20042;-75
2022/01/13 05:07:33;;;;;;;26.00;7.65;;;0.60;99.90;;;;;;4987039;28;20457;-77
2022/01/13 05:10:01;;;;;;;31.70;7.53;;;0.70;99.90;;;;;;4987120;28;20046;-77
2022/01/13 05:12:36;;;;;;;33.42;7.47;;;0.70;99.90;;;;;;4986940;28;20490;-76
2022/01/13 05:15:06;;;;;;;22.75;7.00;;;0.70;99.90;;;;;;4986560;28;20053;-76
2022/01/13 05:20:21;;;;;;;28.10;7.80;;;0.60;99.90;;;;;;4987447;28;20046;-75
2022/01/13 05:22:49;;;;;;;32.60;8.23;;;0.60;99.90;;;;;;4985808;28;20487;-75
2022/01/13 05:25:18;;;;;;;26.70;8.30;;;0.60;99.90;;;;;;4987838;28;20380;-78
2022/01/13 05:27:46;;;;;;;42.13;9.00;;;0.60;99.90;;;;;;4986053;28;20064;-76
2022/01/13 05:30:16;;;;;;;30.88;9.45;;;0.70;99.90;;;;;;4986079;28;20050;-76
2022/01/13 05:32:45;;;;;;;40.13;10.85;;;0.70;99.90;;;;;;4987669;28;20466;-75
2022/01/13 05:35:15;;;;;;;34.00;12.65;;;0.70;99.90;;;;;;4987783;28;20646;-75
2022/01/13 05:37:45;;;;;;;35.45;12.38;;;0.70;99.90;;;;;;4986591;28;20066;-77
2022/01/13 05:40:13;;;;;;;46.30;14.50;;;0.70;99.90;;;;;;4986167;28;20495;-75
2022/01/13 05:42:41;;;;;;;41.95;14.50;;;0.70;99.90;;;;;;4987267;28;20054;-78
2022/01/13 05:45:15;;;;;;;;;;;0.70;99.90;;;;;;4987263;28;20046;-78
2022/01/13 05:47:45;;;;;;;40.58;11.30;;;0.60;99.90;;;;;;4984767;28;19925;-77
2022/01/13 05:50:14;;;;;;;36.53;10.73;;;0.60;99.90;;;;;;4984631;28;20065;-77
2022/01/13 05:52:42;;;;;;;31.17;10.48;;;0.60;99.90;;;;;;4985471;28;20047;-77
2022/01/13 05:55:10;;;;;;;33.58;10.88;;;0.60;99.90;;;;;;4984927;28;20057;-76
2022/01/13 05:57:38;;;;;;;35.30;10.55;;;0.60;99.90;;;;;;4968961;28;20050;-76
2022/01/13 06:00:07;;;;;;;;;;;0.60;99.90;;;;;;4985436;28;20046;-76
2022/01/13 06:02:39;;;;;;;27.83;9.25;;;0.50;99.90;;;;;;4984834;28;20759;-77
2022/01/13 06:05:08;;;;;;;32.78;10.30;;;0.50;99.90;;;;;;4986762;28;20046;-77
2022/01/13 06:07:37;;;;;;;29.48;10.05;;;0.50;99.90;;;;;;4985663;28;20066;-78
2022/01/13 06:10:07;;;;;;;35.47;10.68;;;0.50;99.90;;;;;;4986885;28;20443;-76
2022/01/13 06:12:38;;;;;;;31.98;11.52;;;0.40;99.90;;;;;;4986838;28;20540;-76
2022/01/13 06:15:09;;;;;;;36.33;12.82;;;0.40;99.90;;;;;;4986490;28;20060;-77
2022/01/13 06:17:38;;;;;;;36.72;13.65;;;0.40;99.90;;;;;;4986700;28;20049;-78
2022/01/13 06:20:09;;;;;;;36.72;12.80;;;0.40;99.90;;;;;;4984158;28;20058;-77
2022/01/13 06:22:38;;;;;;;37.42;14.02;;;0.40;99.90;;;;;;4969174;28;20050;-77
2022/01/13 06:25:07;;;;;;;49.05;15.65;;;0.30;99.90;;;;;;4986059;28;20054;-76
2022/01/13 06:27:35;;;;;;;44.95;14.63;;;0.30;99.90;;;;;;4986195;28;20058;-76
2022/01/13 06:30:08;;;;;;;40.58;14.00;;;0.30;99.90;;;;;;4986054;28;20046;-77
2022/01/13 06:32:38;;;;;;;40.45;13.65;;;0.30;99.90;;;;;;4986129;28;20046;-78
2022/01/13 06:35:06;;;;;;;41.13;12.73;;;0.30;99.90;;;;;;4984921;28;20042;-76
2022/01/13 06:37:33;;;;;;;35.97;12.20;;;0.30;99.90;;;;;;4984436;28;20396;-77
2022/01/13 06:40:03;;;;;;;40.58;11.73;;;0.30;99.90;;;;;;4986040;28;20046;-76
2022/01/13 06:42:30;;;;;;;39.13;10.82;;;0.30;99.90;;;;;;4985890;28;20058;-77
2022/01/13 06:44:58;;;;;;;36.05;11.43;;;0.30;99.90;;;;;;4986050;28;20049;-77
2022/01/13 06:47:26;;;;;;;39.63;11.70;;;0.30;99.90;;;;;;4984597;28;20054;-77
2022/01/13 06:49:54;;;;;;;32.28;11.55;;;0.30;99.90;;;;;;4984712;28;20061;-76
2022/01/13 06:52:21;;;;;;;36.78;10.95;;;0.30;99.90;;;;;;4984934;28;20061;-77
2022/01/13 06:54:49;;;;;;;41.67;12.48;;;0.30;99.90;;;;;;4986367;28;20061;-76
2022/01/13 06:57:17;;;;;;;35.10;11.93;;;0.30;99.90;;;;;;4984625;28;20042;-76
2022/01/13 06:59:45;;;;;;;31.88;11.07;;;0.30;99.90;;;;;;4965011;28;20514;-77
2022/01/13 07:02:14;;;;;;;33.55;10.90;;;0.30;99.90;;;;;;4981088;28;20059;-76
2022/01/13 07:04:43;;;;;;;49.75;12.70;;;0.40;99.90;;;;;;4965103;28;20515;-76
2022/01/13 07:07:11;;;;;;;36.45;11.25;;;0.40;99.90;;;;;;4966088;28;20055;-76
2022/01/13 07:09:39;;;;;;;43.00;12.30;;;0.30;99.90;;;;;;4966273;28;20495;-76
2022/01/13 07:12:09;;;;;;;37.28;11.75;;;0.30;99.90;;;;;;4981552;28;20051;-77
2022/01/13 07:14:36;;;;;;;41.15;12.10;;;0.30;99.90;;;;;;4981054;28;20047;-77
2022/01/13 07:17:04;;;;;;;40.58;12.18;;;0.30;99.90;;;;;;4981175;28;20494;-77
2022/01/13 07:19:32;;;;;;;34.10;11.20;;;0.30;99.90;;;;;;4970366;28;20430;-77
2022/01/13 07:22:00;;;;;;;43.67;11.52;;;0.30;99.90;;;;;;4952587;28;20065;-76
2022/01/13 07:24:27;;;;;;;42.20;11.57;;;0.40;99.90;;;;;;4980132;28;20514;-76
2022/01/13 07:26:55;;;;;;;34.88;10.68;;;0.30;99.90;;;;;;4988100;28;20050;-76
2022/01/13 07:29:22;;;;;;;48.25;10.75;;;0.30;99.90;;;;;;4988078;28;20495;-77
2022/01/13 07:31:50;;;;;;;39.33;10.20;;;0.40;99.90;;;;;;4988117;28;20051;-78
2022/01/13 07:34:18;;;;;;;38.33;9.63;;;0.30;99.90;;;;;;4989323;28;20511;-78
2022/01/13 07:36:45;;;;;;;37.25;10.00;;;0.30;99.90;;;;;;4989310;28;20071;-79
2022/01/13 07:39:13;;;;;;;43.65;9.77;;;0.40;99.90;;;;;;4987594;28;20572;-78
2022/01/13 07:41:42;;;;;;;31.08;10.30;;;0.30;99.90;;;;;;4986668;28;20065;-77
2022/01/13 07:44:18;;;;;;;45.08;9.65;;;0.40;99.90;;;;;;4986222;28;20061;-77
2022/01/13 07:46:46;;;;;;;37.40;9.45;;;0.40;99.90;;;;;;4982442;28;20038;-78
2022/01/13 07:49:14;;;;;;;33.83;9.40;;;0.40;99.90;;;;;;5002424;28;20053;-77
2022/01/13 07:51:41;;;;;;;;;;;0.50;99.90;;;;;;5004288;28;20050;-78
2022/01/13 07:54:09;;;;;;;35.72;10.02;;;0.50;99.90;;;;;;5002874;28;19925;-79
2022/01/13 07:56:37;;;;;;;34.20;10.32;;;0.50;99.90;;;;;;5004040;28;20065;-77
2022/01/13 07:59:04;;;;;;;46.95;11.02;;;0.50;99.90;;;;;;4975300;28;20050;-78
2022/01/13 08:01:32;;;;;;;37.17;11.00;;;0.50;99.90;;;;;;4987182;28;20431;-77
2022/01/13 08:04:00;;;;;;;38.25;10.35;;;0.60;99.90;;;;;;4986804;28;20077;-76
2022/01/13 08:06:28;;;;;;;39.88;10.27;;;0.60;99.90;;;;;;4976186;28;20047;-77
2022/01/13 08:08:56;;;;;;;32.90;10.30;;;0.60;99.90;;;;;;4982141;28;20055;-74
2022/01/13 08:11:23;;;;;;;43.13;10.75;;;0.60;99.90;;;;;;4987806;28;20051;-75
2022/01/13 08:13:51;;;;;;;38.45;11.40;;;0.60;99.90;;;;;;4987425;28;20050;-77
2022/01/13 08:16:19;;;;;;;31.33;9.93;;;0.60;99.90;;;;;;4988217;28;20062;-78
2022/01/13 08:21:35;;;;;;;43.80;9.93;;;0.60;99.90;;;;;;4987784;28;20057;-77
2022/01/13 08:24:02;;;;;;;50.50;10.15;;;0.60;99.90;;;;;;4987350;28;20058;-78
2022/01/13 08:26:32;;;;;;;51.65;11.23;;;0.60;99.90;;;;;;4965611;28;20061;-77
2022/01/13 08:29:04;;;;;;;40.45;10.68;;;0.60;99.90;;;;;;4979294;28;20085;-77
2022/01/13 08:31:32;;;;;;;40.88;11.10;;;0.70;99.90;;;;;;4987698;28;20058;-77
2022/01/13 08:33:59;;;;;;;;;;;0.70;99.90;;;;;;4987451;28;20054;-77
2022/01/13 08:36:27;;;;;;;37.05;8.82;;;0.80;99.90;;;;;;4987104;28;19921;-77
2022/01/13 08:38:55;;;;;;;38.33;9.50;;;0.80;99.90;;;;;;4985128;28;20038;-77
2022/01/13 08:41:22;;;;;;;34.53;9.20;;;0.80;99.90;;;;;;4984552;28;20047;-77
2022/01/13 08:43:53;;;;;;;38.45;10.10;;;0.90;99.90;;;;;;4986375;28;20487;-76
2022/01/13 08:46:21;;;;;;;40.10;10.15;;;0.90;99.90;;;;;;4968828;28;20655;-77
2022/01/13 08:48:53;;;;;;;37.22;10.30;;;1.00;99.90;;;;;;4986254;28;20054;-79
2022/01/13 08:51:21;;;;;;;40.58;10.15;;;1.10;99.90;;;;;;4984576;28;20062;-78
2022/01/13 08:53:48;;;;;;;34.13;10.00;;;1.10;99.90;;;;;;4986620;28;20573;-78
2022/01/13 08:56:18;;;;;;;48.58;10.88;;;1.20;99.90;;;;;;4985055;28;20492;-77
2022/01/13 08:58:47;;;;;;;34.47;10.95;;;1.40;99.90;;;;;;4986534;28;20050;-78
2022/01/13 09:01:14;;;;;;;;;;;1.30;99.90;;;;;;5005636;28;20038;-78
2022/01/13 09:03:42;;;;;;;;;;;1.40;99.90;;;;;;4983709;28;19933;-79
2022/01/13 09:06:10;;;;;;;35.97;9.82;;;1.40;99.90;;;;;;4968162;28;19926;-76
2022/01/13 09:08:39;;;;;;;30.98;8.60;;;1.50;99.90;;;;;;4986882;28;20058;-77
2022/01/13 09:11:06;;;;;;;34.42;9.30;;;1.50;99.90;;;;;;4994824;28;20049;-78
2022/01/13 09:13:37;;;;;;;32.45;9.95;;;1.80;99.90;;;;;;4998534;28;20054;-81
2022/01/13 09:16:14;;;;;;;34.30;9.55;;;1.70;99.90;;;;;;4987782;28;20396;-78
2022/01/13 09:21:24;;;;;;;38.05;10.70;;;1.80;99.90;;;;;;4997979;28;20692;-89
2022/01/13 09:23:52;;;;;;;30.38;10.10;;;1.90;99.90;;;;;;4993195;28;20050;-80
2022/01/13 09:26:19;;;;;;;43.40;10.73;;;2.00;99.90;;;;;;5002886;28;20049;-79
2022/01/13 09:28:47;;;;;;;37.88;9.73;;;2.10;99.90;;;;;;5000834;28;20053;-78
2022/01/13 09:31:15;;;;;;;44.55;10.80;;;2.20;99.90;;;;;;4976991;28;20048;-78
2022/01/13 09:33:43;;;;;;;37.42;10.13;;;2.20;99.90;;;;;;5018461;28;20041;-78
2022/01/13 09:36:11;;;;;;;35.80;8.90;;;2.30;99.90;;;;;;4985946;28;20400;-78
2022/01/13 09:38:39;;;;;;;40.38;9.90;;;2.40;99.90;;;;;;4986047;28;20051;-80
2022/01/13 09:41:06;;;;;;;34.10;9.57;;;2.50;99.90;;;;;;4980978;28;20038;-81
2022/01/13 09:43:35;;;;;;;39.67;10.75;;;2.60;99.90;;;;;;4983141;28;20049;-84
2022/01/13 09:46:03;;;;;;;30.40;9.55;;;2.80;99.90;;;;;;4980230;28;20058;-79
2022/01/13 09:48:31;;;;;;;39.13;10.30;;;2.80;99.90;;;;;;4987023;28;20480;-77
2022/01/13 09:50:58;;;;;;;;;;;2.70;99.90;;;;;;4981540;28;20131;-78
2022/01/13 09:53:26;;;;;;;33.38;9.38;;;2.80;99.90;;;;;;4984543;28;20422;-74
2022/01/13 09:55:54;;;;;;;42.00;9.65;;;3.00;99.90;;;;;;4988400;28;20042;-77
2022/01/13 09:58:21;;;;;;;34.83;9.60;;;3.00;99.90;;;;;;4992343;28;20640;-79
2022/01/13 10:00:49;;;;;;;32.20;9.15;;;3.10;99.90;;;;;;4985969;28;20069;-74
2022/01/13 10:03:23;;;;;;;33.22;9.45;;;3.20;99.90;;;;;;4988480;28;20062;-78
2022/01/13 10:05:56;;;;;;;31.05;8.88;;;3.30;99.90;;;;;;5000415;28;20053;-75
2022/01/13 10:08:51;;;;;;;33.22;8.80;;;3.40;99.90;;;;;;5004909;28;20049;-76
2022/01/13 10:11:41;;;;;;;27.45;8.95;;;3.50;99.90;;;;;;4991266;28;20062;-84
2022/01/13 10:16:23;;;;;;;28.00;9.40;;;3.60;99.90;;;;;;4969695;28;20050;-79
2022/01/13 10:17:07;;;;;;;28.98;7.72;;;3.80;99.90;;;;;;4985374;28;20054;-82
2022/01/13 10:19:44;;;;;;;28.50;8.50;;;3.90;99.90;;;;;;4995015;28;20533;-86
2022/01/13 10:22:15;;;;;;;29.20;7.65;;;4.20;99.90;;;;;;4999342;28;20045;-80
2022/01/13 10:24:45;;;;;;;30.00;6.60;;;4.60;99.90;;;;;;5006355;28;20098;-76
2022/01/13 10:27:15;;;;;;;16.45;4.80;;;5.20;99.90;;;;;;5005000;28;20117;-76
2022/01/13 10:29:53;;;;;;;14.15;4.57;;;6.00;99.90;;;;;;4986875;28;20061;-78
2022/01/13 10:32:25;;;;;;;;;;;6.90;99.90;;;;;;4994320;28;20038;-76
2022/01/13 10:35:01;;;;;;;15.90;4.40;;;7.60;99.90;;;;;;5004061;28;20012;-75
2022/01/13 10:37:35;;;;;;;16.33;4.35;;;8.30;99.90;;;;;;4992100;28;20065;-78
2022/01/13 10:40:10;;;;;;;15.63;4.45;;;9.00;99.90;;;;;;4995234;28;20049;-78
2022/01/13 10:45:34;;;;;;;13.80;4.20;;;10.30;99.90;;;;;;5004942;28;20042;-74
2022/01/13 10:48:12;;;;;;;15.57;4.20;;;10.90;99.90;;;;;;4976585;28;20054;-74
2022/01/13 10:50:47;;;;;;;15.48;5.05;;;11.50;99.90;;;;;;4986410;28;20053;-76
2022/01/13 10:53:23;;;;;;;20.67;8.65;;;12.10;99.90;;;;;;5006104;28;20105;-77
2022/01/13 10:55:54;;;;;;;23.67;8.25;;;12.60;99.90;;;;;;5009260;28;20537;-76
2022/01/13 10:58:28;;;;;;;21.60;7.32;;;13.10;99.90;;;;;;5005750;28;20045;-80
2022/01/13 11:00:57;;;;;;;44.05;15.65;;;13.60;99.90;;;;;;5003280;28;20050;-82
2022/01/13 11:03:27;;;;;;;20.20;6.80;;;14.10;99.90;;;;;;5008718;28;20068;-81
2022/01/13 11:06:04;;;;;;;19.27;5.90;;;14.40;99.90;;;;;;5008391;28;20501;-76
2022/01/13 11:08:43;;;;;;;15.57;5.35;;;14.70;99.90;;;;;;5008773;28;20056;-74
2022/01/13 11:11:31;;;;;;;19.97;4.90;;;15.00;99.90;;;;;;5008363;28;20997;-74
2022/01/13 11:14:08;;;;;;;15.82;3.97;;;15.30;99.90;;;;;;5009638;28;20056;-75
2022/01/13 11:16:38;;;;;;;15.63;4.50;;;15.60;99.90;;;;;;5009073;28;20041;-75
2022/01/13 11:19:13;;;;;;;12.68;3.03;;;15.90;99.90;;;;;;5003062;28;20061;-76
2022/01/13 11:21:44;;;;;;;15.20;5.35;;;16.20;99.90;;;;;;4972813;28;20238;-83
2022/01/13 11:24:13;;;;;;;17.05;4.47;;;16.50;99.90;;;;;;4990701;28;20053;-83
2022/01/13 11:26:41;;;;;;;15.48;5.25;;;16.80;99.90;;;;;;4989608;28;20043;-78
2022/01/13 11:29:10;;;;;;;27.27;10.25;;;17.10;99.90;;;;;;4997740;28;20053;-77
2022/01/13 11:31:39;;;;;;;16.48;5.55;;;17.30;99.90;;;;;;4994560;28;20062;-78
2022/01/13 11:34:08;;;;;;;15.60;4.70;;;17.60;99.90;;;;;;4995305;28;20058;-79
2022/01/13 11:36:37;;;;;;;22.85;8.63;;;17.70;99.90;;;;;;5000064;28;20046;-78
2022/01/13 11:39:06;;;;;;;16.35;5.55;;;18.00;99.90;;;;;;5002994;28;20050;-82
2022/01/13 11:41:34;;;;;;;9.93;3.05;;;18.20;99.90;;;;;;4988050;28;20495;-77
2022/01/13 11:44:20;;;;;;;25.65;10.40;;;18.40;99.00;;;;;;4989203;28;20046;-78
2022/01/13 11:46:49;;;;;;;10.75;3.78;;;18.60;97.00;;;;;;5002626;28;20054;-81
2022/01/13 11:49:21;;;;;;;10.00;3.35;;;18.70;97.50;;;;;;4997508;28;20479;-77
2022/01/13 11:52:02;;;;;;;8.05;3.58;;;18.80;96.60;;;;;;4993927;28;20058;-74
2022/01/13 11:54:34;;;;;;;12.57;3.42;;;19.00;95.80;;;;;;4980271;28;20062;-78
2022/01/13 11:57:27;;;;;;;12.00;3.72;;;19.20;96.10;;;;;;4983378;28;20627;-77
2022/01/13 11:59:58;;;;;;;11.68;4.15;;;19.60;95.60;;;;;;4982531;28;20438;-80
2022/01/13 12:02:28;;;;;;;11.45;3.60;;;19.90;95.40;;;;;;4983806;28;20743;-77
2022/01/13 12:05:01;;;;;;;9.95;3.30;;;20.10;94.60;;;;;;4976672;28;20046;-77
2022/01/13 12:07:36;;;;;;;7.30;2.83;;;20.30;93.00;;;;;;4980350;28;20047;-75
2022/01/13 12:10:06;;;;;;;10.18;2.95;;;20.50;90.60;;;;;;4975125;28;20046;-78
2022/01/13 12:12:35;;;;;;;7.75;2.92;;;20.60;92.20;;;;;;4981008;28;20049;-85
2022/01/13 12:15:20;;;;;;;10.38;3.22;;;20.80;91.30;;;;;;4977863;28;20039;-76
2022/01/13 12:18:02;;;;;;;8.50;3.05;;;21.00;87.80;;;;;;4994980;28;20049;-82
2022/01/13 12:20:57;;;;;;;9.88;3.33;;;21.10;85.10;;;;;;4962789;28;20051;-80
2022/01/13 12:23:37;;;;;;;9.18;2.70;;;21.30;88.10;;;;;;4977843;28;20051;-80
2022/01/13 12:26:34;;;;;;;7.15;2.97;;;21.40;82.30;;;;;;4984295;28;20046;-81
2022/01/13 12:29:28;;;;;;;8.63;2.63;;;21.40;77.80;;;;;;4980852;28;20038;-81
2022/01/13 12:31:59;;;;;;;7.00;2.55;;;21.60;77.60;;;;;;4977576;28;20046;-82
2022/01/13 12:34:32;;;;;;;4.97;2.00;;;21.60;78.00;;;;;;4981775;28;20553;-76
2022/01/13 12:37:12;;;;;;;8.45;2.10;;;21.80;77.60;;;;;;4977779;28;20042;-77
2022/01/13 12:39:41;;;;;;;4.70;1.70;;;21.80;71.10;;;;;;4980790;28;20061;-79
2022/01/13 12:42:24;;;;;;;6.28;1.90;;;21.60;72.70;;;;;;4977195;28;20054;-77
2022/01/13 12:47:42;;;;;;;6.55;1.63;;;21.30;72.90;;;;;;4986167;28;20042;-76
2022/01/13 12:50:13;;;;;;;7.80;1.70;;;21.20;71.60;;;;;;4981402;28;20047;-79
2022/01/13 12:52:41;;;;;;;5.63;1.77;;;21.00;71.20;;;;;;4957520;28;20051;-77
2022/01/13 12:55:09;;;;;;;6.97;1.73;;;20.70;71.00;;;;;;4987458;28;20066;-74
2022/01/13 12:57:44;;;;;;;5.50;1.70;;;20.40;70.50;;;;;;4980854;28;20479;-79
2022/01/13 13:00:13;;;;;;;6.40;1.75;;;20.20;68.50;;;;;;4961767;28;20062;-84
2022/01/13 13:02:57;;;;;;;5.20;1.67;;;19.90;71.00;;;;;;4983902;28;20038;-82
2022/01/13 13:05:45;;;;;;;8.93;2.05;;;19.70;68.10;;;;;;4982462;28;20047;-82
2022/01/13 13:08:20;;;;;;;6.32;2.00;;;19.40;68.30;;;;;;4983623;28;20066;-76
2022/01/13 13:10:51;;;;;;;7.15;2.65;;;19.20;71.80;;;;;;4984596;28;20597;-84
2022/01/13 13:13:19;;;;;;;6.82;2.50;;;18.90;71.30;;;;;;4983915;28;20056;-77
2022/01/13 13:15:54;;;;;;;;;;;18.70;70.50;;;;;;4981757;28;20049;-74
2022/01/13 13:18:25;;;;;;;7.18;2.40;;;18.30;67.40;;;;;;4973958;28;20334;-73
2022/01/13 13:20:54;;;;;;;7.65;2.53;;;18.00;71.10;;;;;;4978093;28;20053;-75
2022/01/13 13:23:48;;;;;;;6.70;2.58;;;17.80;70.80;;;;;;4993136;28;20046;-76
2022/01/13 13:26:18;;;;;;;5.80;2.50;;;17.60;68.70;;;;;;4989994;28;20062;-75
2022/01/13 13:28:51;;;;;;;7.10;2.38;;;17.50;70.40;;;;;;4992590;28;20499;-82
2022/01/13 13:31:22;;;;;;;6.28;2.47;;;17.50;71.20;;;;;;4967429;28;20053;-76
2022/01/13 13:34:01;;;;;;;7.47;2.40;;;17.50;71.10;;;;;;5004550;28;20514;-76
2022/01/13 13:36:34;;;;;;;5.65;1.92;;;17.60;71.10;;;;;;5003467;28;20406;-74